Time;durP1;ratioP1;P1;durP2;ratioP2;P2;SDS_P1;SDS_P2;PMS_P1;PMS_P2;Temp;Humidity;BMP_temperature;BMP_pressure;BME280_temperature;BME280_humidity;BME280_pressure;Samples;Min_cycle;Max_cycle;Signal;HPM_P1;HPM_P2
2021/03/25 00:00:24;;;;;;;17.97;7.60;;;2.20;93.00;;;;;;5020223;28;20508;-61
2021/03/25 00:02:50;;;;;;;14.53;7.57;;;2.20;93.20;;;;;;5018758;28;21080;-62
2021/03/25 00:05:16;;;;;;;13.33;6.83;;;2.20;93.50;;;;;;5022148;28;20436;-61
2021/03/25 00:07:42;;;;;;;18.53;8.37;;;2.10;93.50;;;;;;5023302;28;20490;-60
2021/03/25 00:10:14;;;;;;;16.53;8.40;;;2.10;93.60;;;;;;5015626;28;21272;-61
2021/03/25 00:12:40;;;;;;;18.40;8.67;;;2.10;93.80;;;;;;5012437;28;20224;-61
2021/03/25 00:15:06;;;;;;;15.13;7.60;;;2.00;93.80;;;;;;5022919;28;20432;-61
2021/03/25 00:17:32;;;;;;;15.00;7.37;;;2.00;93.80;;;;;;5021828;28;20188;-61
2021/03/25 00:19:58;;;;;;;17.40;7.70;;;2.00;93.90;;;;;;5005289;28;20483;-64
2021/03/25 00:22:24;;;;;;;12.97;7.10;;;1.90;93.70;;;;;;5017231;28;20189;-63
2021/03/25 00:24:49;;;;;;;15.03;6.50;;;1.90;93.80;;;;;;5025759;28;20180;-63
2021/03/25 00:27:15;;;;;;;11.87;6.67;;;1.90;94.00;;;;;;5026066;28;20182;-63
2021/03/25 00:29:40;;;;;;;11.90;6.70;;;1.80;94.00;;;;;;5019689;28;20183;-61
2021/03/25 00:32:09;;;;;;;11.60;6.47;;;1.80;94.20;;;;;;5027855;28;20237;-61
2021/03/25 00:34:35;;;;;;;13.00;6.40;;;1.80;94.30;;;;;;5039786;28;20178;-61
2021/03/25 00:37:01;;;;;;;11.17;6.27;;;1.80;94.40;;;;;;5020826;28;20447;-61
2021/03/25 00:39:26;;;;;;;12.50;7.10;;;1.80;94.50;;;;;;5023217;28;20236;-61
2021/03/25 00:41:52;;;;;;;10.33;7.03;;;1.80;94.60;;;;;;5027318;28;20660;-62
2021/03/25 00:44:18;;;;;;;11.53;6.83;;;1.80;94.60;;;;;;5024839;28;20594;-61
2021/03/25 00:46:44;;;;;;;10.63;6.20;;;1.80;94.60;;;;;;5020891;28;20193;-61
2021/03/25 00:49:10;;;;;;;13.13;6.90;;;1.80;94.60;;;;;;5039444;28;20186;-62
2021/03/25 00:51:36;;;;;;;11.40;6.77;;;1.80;94.60;;;;;;5039780;28;20449;-63
2021/03/25 00:54:02;;;;;;;18.50;7.10;;;1.70;94.50;;;;;;5046641;28;20493;-63
2021/03/25 00:56:28;;;;;;;15.57;7.27;;;1.70;94.60;;;;;;5040146;28;20185;-61
2021/03/25 00:58:53;;;;;;;9.67;6.30;;;1.70;94.70;;;;;;5047637;28;20445;-61
2021/03/25 01:01:20;;;;;;;12.20;6.90;;;1.60;94.70;;;;;;5049231;28;20212;-62
2021/03/25 01:03:45;;;;;;;12.27;7.00;;;1.60;94.70;;;;;;5035400;28;20221;-61
2021/03/25 01:06:11;;;;;;;12.57;7.07;;;1.50;94.70;;;;;;5025281;28;20484;-61
2021/03/25 01:08:37;;;;;;;12.30;7.13;;;1.50;94.70;;;;;;5026401;28;20196;-60
2021/03/25 01:11:13;;;;;;;11.70;6.03;;;1.50;94.90;;;;;;5018659;28;20174;-61
2021/03/25 01:13:50;;;;;;;14.53;6.93;;;1.50;95.00;;;;;;5019802;28;20187;-60
2021/03/25 01:16:30;;;;;;;15.53;6.10;;;1.40;95.00;;;;;;5023055;28;20426;-60
2021/03/25 01:18:56;;;;;;;26.57;6.60;;;1.40;95.10;;;;;;5020136;28;20421;-61
2021/03/25 01:21:22;;;;;;;12.53;6.70;;;1.40;95.20;;;;;;5023100;28;20461;-60
2021/03/25 01:23:49;;;;;;;14.20;6.40;;;1.40;95.30;;;;;;5025597;28;21037;-60
2021/03/25 01:26:15;;;;;;;10.63;6.20;;;1.40;95.30;;;;;;5022385;28;20445;-60
2021/03/25 01:28:41;;;;;;;14.87;6.57;;;1.40;95.30;;;;;;5029296;28;20426;-60
2021/03/25 01:31:09;;;;;;;13.30;7.10;;;1.40;95.30;;;;;;5024745;28;21185;-60
2021/03/25 01:33:35;;;;;;;13.93;6.67;;;1.40;95.40;;;;;;5027999;28;20194;-60
2021/03/25 01:36:01;;;;;;;13.10;7.03;;;1.30;95.20;;;;;;5025373;28;20443;-61
2021/03/25 01:38:27;;;;;;;17.47;6.87;;;1.30;95.30;;;;;;5030325;28;20191;-61
2021/03/25 01:40:58;;;;;;;9.27;6.20;;;1.30;95.20;;;;;;5018604;28;20327;-61
2021/03/25 01:43:42;;;;;;;10.80;7.10;;;1.30;95.30;;;;;;5027333;28;20768;-61
2021/03/25 01:46:30;;;;;;;13.60;6.17;;;1.30;95.50;;;;;;5027399;28;20950;-61
2021/03/25 01:49:00;;;;;;;11.63;6.43;;;1.20;95.50;;;;;;5030328;28;20437;-60
2021/03/25 01:51:44;;;;;;;13.07;6.73;;;1.20;95.60;;;;;;5029900;28;20801;-60
2021/03/25 01:54:37;;;;;;;14.30;6.17;;;1.20;95.70;;;;;;5019085;28;20539;-61
2021/03/25 01:57:24;;;;;;;10.90;5.97;;;1.20;95.70;;;;;;5022909;28;20519;-60
2021/03/25 02:00:32;;;;;;;12.17;6.60;;;1.20;95.80;;;;;;5009490;28;20868;-61
2021/03/25 02:03:21;;;;;;;13.97;7.27;;;1.10;95.70;;;;;;4970162;28;20520;-60
2021/03/25 02:05:53;;;;;;;12.40;7.10;;;1.10;95.70;;;;;;5027960;28;20925;-60
2021/03/25 02:08:37;;;;;;;13.80;6.67;;;1.10;95.70;;;;;;5028831;28;20431;-60
2021/03/25 02:11:40;;;;;;;12.20;6.50;;;1.10;95.70;;;;;;5024886;28;20448;-60
2021/03/25 02:14:20;;;;;;;12.70;7.60;;;1.00;95.80;;;;;;5023620;28;20441;-60
2021/03/25 02:17:09;;;;;;;16.33;6.00;;;1.10;95.90;;;;;;5024441;28;20449;-61
2021/03/25 02:19:53;;;;;;;18.87;7.60;;;1.00;95.90;;;;;;5018188;28;20460;-60
2021/03/25 02:22:46;;;;;;;12.20;6.70;;;1.00;95.90;;;;;;5025794;28;20450;-61
2021/03/25 02:25:27;;;;;;;14.43;6.97;;;1.00;96.00;;;;;;5029751;28;20876;-60
2021/03/25 02:28:03;;;;;;;13.03;6.70;;;0.90;96.00;;;;;;5017028;28;20538;-61
2021/03/25 02:30:46;;;;;;;12.47;7.13;;;0.90;96.10;;;;;;5021202;28;20437;-60
2021/03/25 02:33:16;;;;;;;14.43;6.53;;;0.90;96.10;;;;;;5018623;28;20444;-60
2021/03/25 02:35:49;;;;;;;11.27;6.93;;;0.90;96.20;;;;;;5027426;28;20443;-61
2021/03/25 02:38:23;;;;;;;12.43;6.30;;;0.90;96.20;;;;;;5024066;28;21091;-61
2021/03/25 02:40:53;;;;;;;11.60;7.03;;;0.80;96.30;;;;;;5024176;28;20456;-61
2021/03/25 02:43:47;;;;;;;10.93;6.10;;;0.80;96.40;;;;;;5026712;28;20863;-61
2021/03/25 02:46:42;;;;;;;13.47;6.27;;;0.80;96.30;;;;;;5024847;28;20420;-60
2021/03/25 02:49:11;;;;;;;11.90;6.70;;;0.80;96.20;;;;;;5028015;28;20432;-61
2021/03/25 02:52:01;;;;;;;12.63;6.20;;;0.80;96.20;;;;;;5027164;28;20976;-60
2021/03/25 02:54:27;;;;;;;15.10;6.37;;;0.80;96.10;;;;;;5018910;28;20437;-60
2021/03/25 02:56:57;;;;;;;11.10;6.97;;;0.80;96.20;;;;;;5021820;28;20429;-61
2021/03/25 02:59:31;;;;;;;11.30;6.67;;;0.70;96.20;;;;;;5028097;28;20881;-58
2021/03/25 03:02:04;;;;;;;7.60;5.70;;;0.70;96.30;;;;;;5020451;28;21039;-59
2021/03/25 03:04:35;;;;;;;10.00;6.07;;;0.70;96.30;;;;;;5025729;28;20448;-59
2021/03/25 03:07:10;;;;;;;14.73;7.10;;;0.60;96.40;;;;;;5023516;28;20428;-58
2021/03/25 03:09:40;;;;;;;10.77;5.93;;;0.60;96.50;;;;;;5027093;28;20471;-59
2021/03/25 03:12:13;;;;;;;14.57;7.60;;;0.50;96.80;;;;;;5019543;28;20962;-59
2021/03/25 03:14:46;;;;;;;11.43;6.90;;;0.50;96.90;;;;;;5026037;28;20444;-59
2021/03/25 03:17:24;;;;;;;10.67;6.10;;;0.50;97.00;;;;;;5025233;28;20557;-59
2021/03/25 03:20:04;;;;;;;14.63;6.67;;;0.50;97.10;;;;;;5028100;28;20485;-59
2021/03/25 03:22:30;;;;;;;12.97;6.00;;;0.50;97.00;;;;;;5020344;28;20555;-59
2021/03/25 03:24:56;;;;;;;11.40;6.50;;;0.50;97.10;;;;;;5025339;28;20510;-59
2021/03/25 03:27:32;;;;;;;23.17;7.47;;;0.50;97.00;;;;;;5025946;28;20760;-59
2021/03/25 03:30:04;;;;;;;13.00;7.07;;;0.50;97.00;;;;;;5024655;28;20439;-59
2021/03/25 03:32:33;;;;;;;11.67;6.60;;;0.50;96.90;;;;;;5015929;28;20456;-60
2021/03/25 03:35:11;;;;;;;12.77;6.97;;;0.50;96.90;;;;;;5016195;28;20432;-59
2021/03/25 03:37:42;;;;;;;12.90;7.20;;;0.50;97.30;;;;;;5022368;28;20442;-59
2021/03/25 03:40:26;;;;;;;14.00;7.43;;;0.40;96.90;;;;;;5029354;28;20460;-59
2021/03/25 03:42:56;;;;;;;8.90;6.07;;;0.40;97.00;;;;;;5016636;28;20464;-60
2021/03/25 03:45:23;;;;;;;13.10;7.40;;;0.40;97.10;;;;;;5016205;28;20940;-59
2021/03/25 03:47:51;;;;;;;9.13;6.20;;;0.40;97.30;;;;;;5017155;28;20467;-60
2021/03/25 03:50:24;;;;;;;11.10;6.20;;;0.30;97.30;;;;;;5011612;28;20478;-59
2021/03/25 03:52:50;;;;;;;22.40;7.30;;;0.30;97.40;;;;;;5018658;28;20491;-59
2021/03/25 03:55:18;;;;;;;13.60;6.20;;;0.30;97.50;;;;;;5019599;28;20443;-59
2021/03/25 03:57:50;;;;;;;13.57;7.27;;;0.30;97.50;;;;;;5023217;28;20436;-59
2021/03/25 04:00:28;;;;;;;11.83;6.40;;;0.30;97.50;;;;;;5019724;28;21005;-60
2021/03/25 04:03:11;;;;;;;11.90;6.60;;;0.30;97.50;;;;;;5017958;28;21099;-59
2021/03/25 04:05:41;;;;;;;23.53;7.53;;;0.30;97.50;;;;;;5025996;28;20424;-60
2021/03/25 04:08:26;;;;;;;15.87;7.27;;;0.30;97.50;;;;;;5025818;28;20434;-59
2021/03/25 04:11:06;;;;;;;10.77;7.03;;;0.20;97.50;;;;;;5019161;28;20447;-60
2021/03/25 04:13:42;;;;;;;10.50;6.50;;;0.20;97.60;;;;;;5024668;28;20896;-59
2021/03/25 04:16:08;;;;;;;12.10;6.60;;;0.20;97.70;;;;;;5025883;28;20512;-59
2021/03/25 04:18:57;;;;;;;10.47;6.03;;;0.20;97.80;;;;;;5016670;28;20533;-59
2021/03/25 04:21:36;;;;;;;10.20;6.30;;;0.10;97.70;;;;;;5026206;28;20201;-60
2021/03/25 04:24:11;;;;;;;11.97;7.30;;;0.10;97.60;;;;;;5022178;28;20947;-60
2021/03/25 04:26:56;;;;;;;11.50;6.00;;;0.10;97.70;;;;;;5023487;28;20439;-60
2021/03/25 04:29:29;;;;;;;61.50;7.10;;;0.10;97.70;;;;;;5024360;28;21225;-60
2021/03/25 04:31:57;;;;;;;12.80;6.87;;;0.00;97.80;;;;;;5029283;28;20506;-60
2021/03/25 04:34:23;;;;;;;12.20;6.80;;;0.00;97.80;;;;;;5022073;28;20424;-60
2021/03/25 04:36:49;;;;;;;12.17;6.23;;;0.00;97.80;;;;;;5023681;28;20437;-60
2021/03/25 04:39:16;;;;;;;11.73;6.10;;;0.00;98.10;;;;;;5017934;28;20423;-60
2021/03/25 04:41:44;;;;;;;11.43;6.80;;;0.00;98.10;;;;;;5021834;28;20530;-60
2021/03/25 04:44:35;;;;;;;14.13;7.30;;;0.00;98.00;;;;;;5018835;28;21050;-60
2021/03/25 04:47:06;;;;;;;17.63;7.00;;;0.00;98.00;;;;;;5022732;28;20442;-59
2021/03/25 04:49:38;;;;;;;13.57;7.20;;;0.00;97.90;;;;;;5020174;28;20670;-60
2021/03/25 04:52:08;;;;;;;12.53;6.60;;;0.00;97.80;;;;;;5046286;22;20464;-60
2021/03/25 04:54:39;;;;;;;13.57;6.60;;;-0.10;97.70;;;;;;5005009;28;20495;-60
2021/03/25 04:57:20;;;;;;;13.37;6.77;;;-0.10;97.90;;;;;;5008129;28;20474;-61
2021/03/25 04:59:45;;;;;;;8.90;5.57;;;-0.10;97.80;;;;;;5004539;28;20566;-60
2021/03/25 05:02:12;;;;;;;13.57;6.97;;;-0.10;98.00;;;;;;4997135;28;20539;-61
2021/03/25 05:04:45;;;;;;;12.17;7.10;;;-0.10;98.10;;;;;;5007922;28;20268;-56
2021/03/25 05:07:21;;;;;;;11.27;6.47;;;-0.10;98.10;;;;;;4996658;28;20428;-59
2021/03/25 05:09:47;;;;;;;12.80;6.90;;;-0.10;98.10;;;;;;5000973;28;20439;-60
2021/03/25 05:12:15;;;;;;;11.90;6.57;;;-0.10;98.10;;;;;;4995022;28;20449;-59
2021/03/25 05:14:43;;;;;;;15.30;6.77;;;-0.10;98.10;;;;;;4997305;28;20444;-58
2021/03/25 05:17:20;;;;;;;18.30;7.53;;;-0.10;98.10;;;;;;4992117;28;20445;-59
2021/03/25 05:20:02;;;;;;;14.77;7.77;;;-0.20;98.10;;;;;;4993505;28;20837;-57
2021/03/25 05:22:45;;;;;;;13.20;7.00;;;-0.20;98.20;;;;;;4996517;28;20504;-60
2021/03/25 05:25:38;;;;;;;16.43;7.57;;;-0.20;98.20;;;;;;4998101;28;20425;-57
2021/03/25 05:28:23;;;;;;;14.30;6.87;;;-0.20;98.20;;;;;;5006272;28;20849;-58
2021/03/25 05:30:51;;;;;;;13.43;6.60;;;-0.10;98.10;;;;;;4996319;28;21310;-57
2021/03/25 05:33:25;;;;;;;17.90;7.40;;;-0.10;98.10;;;;;;5006262;28;20441;-56
2021/03/25 05:35:56;;;;;;;16.90;7.60;;;-0.10;98.20;;;;;;5000541;28;20495;-58
2021/03/25 05:38:22;;;;;;;12.83;6.63;;;-0.10;98.30;;;;;;5000661;28;20432;-59
2021/03/25 05:41:01;;;;;;;11.30;6.70;;;-0.10;98.30;;;;;;4998145;28;21622;-59
2021/03/25 05:44:05;;;;;;;13.03;7.00;;;-0.10;98.30;;;;;;4997653;28;21463;-57
2021/03/25 05:46:45;;;;;;;12.33;6.63;;;-0.10;98.30;;;;;;5000506;28;20433;-59
2021/03/25 05:49:39;;;;;;;14.60;7.20;;;-0.10;98.30;;;;;;4993675;28;20431;-54
2021/03/25 05:52:19;;;;;;;12.37;6.73;;;-0.10;98.20;;;;;;4995356;28;20926;-60
2021/03/25 05:55:00;;;;;;;12.27;6.57;;;-0.10;98.20;;;;;;4996773;28;20452;-58
2021/03/25 05:57:52;;;;;;;11.20;7.07;;;0.00;98.20;;;;;;4995460;28;20440;-59
2021/03/25 06:00:56;;;;;;;14.00;6.90;;;0.00;98.30;;;;;;4995276;28;20466;-60
2021/03/25 06:03:24;;;;;;;14.30;7.07;;;0.00;98.30;;;;;;4994418;28;20492;-57
2021/03/25 06:05:54;;;;;;;13.20;7.80;;;0.00;98.30;;;;;;4992161;28;20962;-59
2021/03/25 06:08:38;;;;;;;12.00;6.87;;;0.10;98.30;;;;;;4997926;28;20600;-57
2021/03/25 06:11:30;;;;;;;11.03;7.10;;;0.10;98.30;;;;;;4997882;28;20424;-56
2021/03/25 06:14:34;;;;;;;11.83;6.57;;;0.20;98.40;;;;;;5010528;28;20474;-58
2021/03/25 06:17:18;;;;;;;15.77;8.07;;;0.30;98.40;;;;;;4997141;28;21103;-59
2021/03/25 06:20:00;;;;;;;12.33;7.10;;;0.40;98.30;;;;;;5010738;28;20465;-59
2021/03/25 06:22:41;;;;;;;15.67;7.83;;;0.40;98.20;;;;;;5002651;28;20971;-59
2021/03/25 06:25:25;;;;;;;14.07;7.00;;;0.50;98.20;;;;;;5001170;28;20515;-57
2021/03/25 06:27:54;;;;;;;16.37;8.03;;;0.60;98.00;;;;;;4997395;28;20961;-58
2021/03/25 06:30:29;;;;;;;17.63;8.50;;;0.70;98.00;;;;;;4996725;28;20472;-59
2021/03/25 06:33:26;;;;;;;16.00;7.47;;;0.70;97.90;;;;;;4994710;28;20456;-58
2021/03/25 06:35:57;;;;;;;15.33;7.90;;;0.80;97.80;;;;;;4999882;28;20428;-58
2021/03/25 06:38:33;;;;;;;14.20;7.73;;;0.90;97.70;;;;;;4997021;28;20498;-58
2021/03/25 06:41:08;;;;;;;12.40;6.77;;;0.90;97.70;;;;;;4992878;28;20730;-57
2021/03/25 06:43:43;;;;;;;16.70;7.07;;;1.00;97.80;;;;;;4994801;28;20591;-56
2021/03/25 06:46:33;;;;;;;10.63;7.00;;;1.00;97.70;;;;;;4997071;28;20424;-60
2021/03/25 06:49:04;;;;;;;15.97;7.90;;;1.10;97.40;;;;;;5003452;28;20433;-61
2021/03/25 06:51:35;;;;;;;14.53;7.80;;;1.20;97.60;;;;;;4999887;28;20436;-59
2021/03/25 06:54:16;;;;;;;9.40;7.07;;;1.30;97.70;;;;;;4998001;28;20469;-61
2021/03/25 06:56:50;;;;;;;14.37;7.60;;;1.30;97.70;;;;;;4997073;28;20437;-58
2021/03/25 06:59:20;;;;;;;12.90;6.73;;;1.40;97.70;;;;;;4996423;28;20444;-58
2021/03/25 07:01:49;;;;;;;11.13;6.60;;;1.50;97.60;;;;;;4998298;28;20471;-58
2021/03/25 07:04:40;;;;;;;23.50;7.57;;;1.60;97.40;;;;;;4997403;28;20464;-57
2021/03/25 07:07:12;;;;;;;13.97;6.87;;;1.70;97.20;;;;;;4998112;28;20433;-59
2021/03/25 07:09:39;;;;;;;12.93;7.57;;;1.90;97.00;;;;;;4993447;28;20441;-56
2021/03/25 07:12:16;;;;;;;16.70;8.33;;;1.90;96.80;;;;;;5002588;28;21081;-58
2021/03/25 07:14:44;;;;;;;15.30;7.83;;;2.10;96.90;;;;;;5004411;28;20535;-59
2021/03/25 07:17:13;;;;;;;13.93;7.07;;;2.10;96.70;;;;;;5001753;28;20434;-62
2021/03/25 07:19:44;;;;;;;15.20;7.23;;;2.20;96.40;;;;;;5004778;28;20438;-59
2021/03/25 07:22:19;;;;;;;12.97;6.73;;;2.40;96.20;;;;;;4988206;28;20485;-59
2021/03/25 07:24:45;;;;;;;19.53;6.97;;;2.40;96.00;;;;;;5003354;28;20823;-59
2021/03/25 07:27:16;;;;;;;14.10;6.80;;;2.50;96.00;;;;;;4998886;28;20438;-58
2021/03/25 07:29:58;;;;;;;14.73;7.00;;;2.60;96.20;;;;;;4996266;28;20448;-62
2021/03/25 07:32:37;;;;;;;19.80;6.47;;;2.70;96.80;;;;;;4992576;28;20469;-62
2021/03/25 07:35:15;;;;;;;11.13;6.80;;;2.80;96.70;;;;;;4996298;28;20530;-62
2021/03/25 07:37:43;;;;;;;12.63;5.30;;;2.90;96.50;;;;;;5016670;28;20437;-62
2021/03/25 07:40:26;;;;;;;11.07;6.40;;;3.10;96.60;;;;;;5009159;28;20484;-64
2021/03/25 07:42:52;;;;;;;10.80;6.10;;;3.20;96.40;;;;;;5008982;28;20485;-58
2021/03/25 07:45:29;;;;;;;10.97;6.37;;;3.30;96.20;;;;;;5000800;28;20532;-59
2021/03/25 07:48:11;;;;;;;15.93;6.27;;;3.50;96.20;;;;;;4992852;28;20440;-59
2021/03/25 07:50:38;;;;;;;8.03;5.33;;;3.60;95.80;;;;;;4994206;28;20605;-59
2021/03/25 07:53:18;;;;;;;11.93;5.90;;;3.80;94.80;;;;;;4997493;28;20494;-61
2021/03/25 07:55:44;;;;;;;16.97;6.50;;;3.90;94.20;;;;;;5013052;28;20466;-60
2021/03/25 07:58:18;;;;;;;14.80;7.33;;;3.90;94.10;;;;;;4998834;28;20814;-59
2021/03/25 08:00:43;;;;;;;11.50;7.67;;;4.10;94.40;;;;;;4995087;28;21093;-60
2021/03/25 08:03:22;;;;;;;16.50;8.30;;;4.10;94.70;;;;;;5014885;28;20448;-59
2021/03/25 08:05:50;;;;;;;15.00;7.60;;;4.30;94.20;;;;;;5000549;28;20233;-59
2021/03/25 08:08:34;;;;;;;20.97;9.10;;;4.40;93.80;;;;;;4996343;28;20464;-61
2021/03/25 08:11:17;;;;;;;16.47;9.33;;;4.50;93.90;;;;;;4986764;28;20432;-61
2021/03/25 08:13:52;;;;;;;14.80;8.37;;;4.60;93.60;;;;;;4989294;28;21725;-61
2021/03/25 08:16:18;;;;;;;17.40;8.77;;;4.80;93.80;;;;;;4995198;28;20504;-60
2021/03/25 08:19:30;;;;;;;21.53;8.77;;;4.90;93.90;;;;;;4997360;28;20444;-62
2021/03/25 08:22:19;;;;;;;11.73;6.90;;;5.10;93.70;;;;;;4961384;28;20450;-59
2021/03/25 08:24:54;;;;;;;23.77;8.30;;;5.20;93.20;;;;;;4992907;28;20460;-59
2021/03/25 08:27:35;;;;;;;14.77;7.50;;;5.40;92.70;;;;;;4990005;28;20444;-57
2021/03/25 08:30:27;;;;;;;13.90;7.50;;;5.50;92.00;;;;;;4992605;28;20420;-60
2021/03/25 08:33:18;;;;;;;17.73;8.50;;;5.70;91.10;;;;;;4993835;28;20463;-60
2021/03/25 08:35:52;;;;;;;14.50;7.97;;;5.80;91.60;;;;;;4997729;28;20439;-58
2021/03/25 08:38:39;;;;;;;23.10;9.40;;;5.90;91.70;;;;;;4998696;28;20442;-57
2021/03/25 08:41:30;;;;;;;18.70;8.97;;;6.10;91.30;;;;;;4997746;28;20460;-57
2021/03/25 08:44:01;;;;;;;13.73;8.50;;;6.30;90.30;;;;;;4999472;28;20497;-59
2021/03/25 08:46:28;;;;;;;24.00;9.90;;;6.40;90.40;;;;;;5006016;28;20438;-58
2021/03/25 08:49:01;;;;;;;16.83;8.57;;;6.60;90.70;;;;;;5002880;28;21230;-58
2021/03/25 08:51:34;;;;;;;21.43;9.27;;;6.80;90.80;;;;;;5003018;28;20480;-59
2021/03/25 08:54:18;;;;;;;18.30;8.83;;;7.00;90.60;;;;;;4999017;28;20467;-59
2021/03/25 08:56:50;;;;;;;19.63;9.10;;;7.20;90.50;;;;;;4999307;28;20431;-57
2021/03/25 08:59:23;;;;;;;21.33;9.80;;;7.40;90.00;;;;;;5001023;28;20439;-58
2021/03/25 09:01:52;;;;;;;29.50;12.20;;;7.70;88.60;;;;;;4999371;28;20463;-57
2021/03/25 09:04:20;;;;;;;27.23;10.50;;;7.90;88.50;;;;;;5004532;28;20453;-57
2021/03/25 09:06:48;;;;;;;18.10;10.20;;;8.10;87.90;;;;;;4995356;28;20977;-58
2021/03/25 09:09:28;;;;;;;19.30;10.07;;;8.40;87.10;;;;;;5004633;28;20432;-58
2021/03/25 09:11:55;;;;;;;23.33;11.00;;;8.70;86.20;;;;;;5002218;28;20450;-59
2021/03/25 09:14:23;;;;;;;26.03;10.73;;;8.90;82.90;;;;;;5000690;28;20539;-59
2021/03/25 09:16:50;;;;;;;27.93;10.90;;;9.10;78.10;;;;;;5002740;28;20494;-60
2021/03/25 09:19:29;;;;;;;22.60;11.30;;;9.30;76.70;;;;;;4992586;28;20639;-58
2021/03/25 09:21:57;;;;;;;21.93;10.03;;;9.60;73.20;;;;;;4994920;28;20963;-57
2021/03/25 09:24:23;;;;;;;19.33;9.00;;;9.70;71.10;;;;;;4992105;28;20435;-57
2021/03/25 09:26:56;;;;;;;19.20;10.20;;;9.90;68.20;;;;;;4996210;28;20573;-57
2021/03/25 09:29:26;;;;;;;108.93;12.80;;;10.10;60.30;;;;;;5002439;28;20428;-58
2021/03/25 09:31:54;;;;;;;22.80;7.93;;;10.30;61.20;;;;;;5002153;28;20567;-57
2021/03/25 09:34:23;;;;;;;22.47;10.03;;;10.50;64.10;;;;;;5004396;28;21026;-57
2021/03/25 09:36:56;;;;;;;18.97;9.03;;;10.80;58.80;;;;;;4997593;28;20510;-58
2021/03/25 09:39:35;;;;;;;23.70;9.73;;;11.10;57.00;;;;;;5001370;28;20424;-59
2021/03/25 09:42:27;;;;;;;18.10;8.80;;;11.30;56.00;;;;;;5000922;28;20450;-58
2021/03/25 09:44:54;;;;;;;19.80;9.53;;;11.60;56.00;;;;;;4995148;28;20427;-64
2021/03/25 09:47:36;;;;;;;17.47;8.20;;;11.80;55.30;;;;;;4996807;28;20454;-58
2021/03/25 09:50:01;;;;;;;18.10;8.07;;;12.00;54.60;;;;;;4994430;28;20518;-57
2021/03/25 09:52:34;;;;;;;26.40;9.07;;;12.10;53.90;;;;;;5001502;28;21064;-58
2021/03/25 09:55:00;;;;;;;18.90;8.10;;;12.30;53.00;;;;;;4992702;28;20177;-58
2021/03/25 09:57:36;;;;;;;22.43;8.70;;;12.50;51.70;;;;;;4997478;28;20447;-57
2021/03/25 10:00:27;;;;;;;17.63;7.83;;;12.70;51.40;;;;;;4997722;28;20243;-58
2021/03/25 10:02:54;;;;;;;33.63;14.10;;;12.80;49.80;;;;;;5000919;28;20448;-59
2021/03/25 10:05:35;;;;;;;15.83;8.33;;;13.00;49.00;;;;;;4996144;28;20443;-61
2021/03/25 10:08:27;;;;;;;14.57;8.07;;;13.10;48.80;;;;;;4998748;28;20459;-58
2021/03/25 10:10:53;;;;;;;17.00;7.40;;;13.30;48.20;;;;;;4996714;28;20428;-60
2021/03/25 10:13:44;;;;;;;12.90;7.00;;;13.50;47.20;;;;;;4994576;28;20530;-58
2021/03/25 10:16:29;;;;;;;16.93;7.50;;;13.80;47.40;;;;;;4997160;28;20423;-55
2021/03/25 10:18:56;;;;;;;10.90;6.53;;;14.00;47.60;;;;;;4993801;28;20440;-58
2021/03/25 10:21:44;;;;;;;16.00;6.87;;;14.30;46.90;;;;;;5005214;28;20601;-57
2021/03/25 10:24:25;;;;;;;17.27;7.10;;;14.40;43.70;;;;;;4994443;28;20459;-57
2021/03/25 10:27:19;;;;;;;13.57;6.53;;;14.40;43.30;;;;;;4996434;28;21043;-58
2021/03/25 10:29:46;;;;;;;13.80;7.67;;;14.40;43.70;;;;;;4989691;28;20851;-58
2021/03/25 10:32:33;;;;;;;9.33;5.67;;;14.30;43.90;;;;;;4996400;28;20781;-58
2021/03/25 10:35:01;;;;;;;11.43;5.70;;;14.30;43.00;;;;;;5000746;28;21101;-58
2021/03/25 10:37:30;;;;;;;12.20;6.27;;;14.40;41.30;;;;;;4996845;28;20463;-59
2021/03/25 10:40:32;;;;;;;12.10;6.67;;;14.40;41.70;;;;;;5002784;28;21184;-57
2021/03/25 10:43:12;;;;;;;12.20;5.53;;;14.60;41.80;;;;;;4973975;28;20463;-59
2021/03/25 10:45:53;;;;;;;11.97;5.53;;;14.70;41.80;;;;;;4994684;28;20405;-56
2021/03/25 10:48:33;;;;;;;11.03;6.80;;;14.90;41.60;;;;;;4989212;28;20427;-59
2021/03/25 10:51:02;;;;;;;15.50;7.20;;;15.10;41.90;;;;;;4991833;28;20431;-60
2021/03/25 10:53:38;;;;;;;13.20;6.33;;;15.20;42.10;;;;;;5026458;22;20486;-61
2021/03/25 10:56:12;;;;;;;12.47;6.10;;;15.40;41.90;;;;;;5025479;28;20476;-60
2021/03/25 10:58:40;;;;;;;12.20;6.13;;;15.50;41.80;;;;;;5027916;28;20494;-60
2021/03/25 11:01:24;;;;;;;17.43;5.93;;;15.60;39.90;;;;;;5022224;28;20838;-61
2021/03/25 11:03:50;;;;;;;12.67;7.30;;;15.70;39.30;;;;;;5021654;28;20450;-61
2021/03/25 11:06:28;;;;;;;12.50;6.67;;;15.70;39.70;;;;;;5019076;28;20937;-62
2021/03/25 11:09:23;;;;;;;13.67;7.10;;;15.70;38.80;;;;;;5016036;28;20433;-62
2021/03/25 11:12:11;;;;;;;17.30;7.43;;;15.70;40.80;;;;;;5020224;28;21151;-62
2021/03/25 11:14:46;;;;;;;13.23;6.87;;;15.80;40.60;;;;;;5021214;28;20456;-61
2021/03/25 11:17:36;;;;;;;12.73;6.67;;;15.90;40.00;;;;;;5021366;28;20430;-60
2021/03/25 11:20:08;;;;;;;10.77;5.80;;;16.10;39.00;;;;;;5025140;28;20455;-60
2021/03/25 11:22:34;;;;;;;11.10;6.17;;;16.20;39.60;;;;;;5018791;28;20510;-62
2021/03/25 11:25:09;;;;;;;12.93;6.50;;;16.30;39.40;;;;;;5013186;28;20446;-61
2021/03/25 11:27:38;;;;;;;8.00;5.67;;;16.40;38.80;;;;;;5020118;28;20422;-61
2021/03/25 11:30:25;;;;;;;13.60;7.13;;;16.60;38.70;;;;;;5019368;28;20430;-62
2021/03/25 11:32:52;;;;;;;13.27;6.33;;;16.60;39.40;;;;;;5024163;28;20465;-61
2021/03/25 11:35:41;;;;;;;11.43;6.40;;;16.70;38.80;;;;;;5010102;28;20439;-61
2021/03/25 11:38:30;;;;;;;17.50;6.60;;;16.70;38.10;;;;;;5017862;28;20836;-62
2021/03/25 11:41:32;;;;;;;12.83;6.70;;;16.70;38.50;;;;;;5022727;28;20939;-62
2021/03/25 11:44:01;;;;;;;12.30;6.30;;;16.90;39.20;;;;;;5018049;28;20834;-60
2021/03/25 11:46:36;;;;;;;13.27;6.10;;;17.10;38.30;;;;;;5018709;28;20411;-61
2021/03/25 11:49:12;;;;;;;12.17;6.60;;;17.30;38.00;;;;;;5035905;28;20438;-61
2021/03/25 11:51:45;;;;;;;12.37;6.47;;;17.50;36.60;;;;;;5024807;28;20433;-62
2021/03/25 11:54:37;;;;;;;12.30;7.67;;;17.50;37.50;;;;;;5016724;28;20476;-58
2021/03/25 11:57:26;;;;;;;20.83;7.80;;;17.60;37.40;;;;;;5021109;28;20529;-58
2021/03/25 12:00:12;;;;;;;12.43;7.70;;;17.70;37.90;;;;;;5029160;28;20430;-58
2021/03/25 12:02:40;;;;;;;20.20;7.20;;;17.70;37.90;;;;;;5019369;28;20429;-62
2021/03/25 12:05:38;;;;;;;12.07;6.80;;;17.80;37.80;;;;;;5025431;28;20481;-63
2021/03/25 12:08:13;;;;;;;13.20;7.10;;;17.90;36.90;;;;;;5026059;28;20441;-62
2021/03/25 12:10:40;;;;;;;13.83;7.53;;;18.10;37.80;;;;;;5021410;28;20446;-61
2021/03/25 12:13:06;;;;;;;11.07;6.83;;;18.30;37.50;;;;;;5028759;28;20457;-62
2021/03/25 12:15:32;;;;;;;11.03;6.20;;;18.30;37.00;;;;;;5029859;28;20430;-62
2021/03/25 12:18:00;;;;;;;10.37;6.57;;;18.50;37.30;;;;;;5028074;28;20430;-62
2021/03/25 12:20:29;;;;;;;14.60;6.60;;;18.50;35.30;;;;;;5019140;28;20904;-62
2021/03/25 12:23:04;;;;;;;9.03;6.23;;;18.50;36.70;;;;;;5017571;28;20549;-61
2021/03/25 12:25:31;;;;;;;10.43;6.33;;;18.60;35.90;;;;;;5014595;28;20414;-62
2021/03/25 12:27:57;;;;;;;9.27;5.97;;;18.60;35.00;;;;;;5022816;28;21055;-62
2021/03/25 12:30:23;;;;;;;11.93;6.27;;;18.50;35.20;;;;;;5017224;28;20429;-60
2021/03/25 12:32:49;;;;;;;10.00;5.70;;;18.50;35.50;;;;;;5024277;28;20501;-60
2021/03/25 12:35:17;;;;;;;11.50;6.80;;;18.50;35.90;;;;;;5023308;28;20775;-62
2021/03/25 12:37:44;;;;;;;11.33;5.77;;;18.30;35.30;;;;;;5020097;28;20187;-61
2021/03/25 12:40:10;;;;;;;10.90;6.97;;;18.20;35.80;;;;;;5024720;28;20461;-60
2021/03/25 12:42:36;;;;;;;10.57;6.40;;;18.10;35.80;;;;;;5016477;28;20505;-58
2021/03/25 12:45:04;;;;;;;14.77;7.33;;;18.00;36.00;;;;;;5009497;28;20897;-59
2021/03/25 12:47:29;;;;;;;11.50;6.00;;;17.80;36.40;;;;;;5020136;28;20168;-63
2021/03/25 12:49:56;;;;;;;10.13;5.40;;;17.60;36.80;;;;;;5021002;28;20991;-63
2021/03/25 12:52:21;;;;;;;9.17;5.97;;;17.50;37.20;;;;;;5017601;28;20184;-61
2021/03/25 12:54:47;;;;;;;10.47;5.17;;;17.50;36.40;;;;;;5011084;28;20454;-62
2021/03/25 12:57:17;;;;;;;10.77;5.53;;;17.50;36.30;;;;;;5016774;28;22428;-63
2021/03/25 12:59:43;;;;;;;8.00;5.80;;;17.50;36.80;;;;;;5015756;28;20180;-62
2021/03/25 13:02:11;;;;;;;11.90;6.00;;;17.40;36.30;;;;;;5012125;28;20981;-61
2021/03/25 13:04:39;;;;;;;13.60;6.47;;;17.40;36.60;;;;;;5018361;28;20196;-61
2021/03/25 13:07:05;;;;;;;8.30;5.80;;;17.30;36.50;;;;;;5019264;28;20434;-61
2021/03/25 13:09:31;;;;;;;11.10;6.40;;;17.20;36.70;;;;;;5022456;28;20845;-61
2021/03/25 13:12:18;;;;;;;9.07;5.73;;;17.20;37.70;;;;;;5018037;28;20176;-61
2021/03/25 13:14:44;;;;;;;9.20;5.80;;;17.40;37.60;;;;;;5008530;28;20465;-61
2021/03/25 13:17:10;;;;;;;10.47;5.63;;;17.50;36.60;;;;;;5015700;28;20423;-61
2021/03/25 13:19:35;;;;;;;10.77;6.00;;;17.50;36.60;;;;;;5018371;28;20266;-61
2021/03/25 13:22:01;;;;;;;9.17;5.80;;;17.30;36.00;;;;;;5027458;28;20633;-61